Time;durP1;ratioP1;P1;durP2;ratioP2;P2;SDS_P1;SDS_P2;PMS_P1;PMS_P2;Temp;Humidity;BMP_temperature;BMP_pressure;BME280_temperature;BME280_humidity;BME280_pressure;Samples;Min_cycle;Max_cycle;Signal;HPM_P1;HPM_P2
2022/07/28 00:02:04;;;;;;;1.97;1.77;;;14.80;99.90;;;;;;5055744;28;20167;-71
2022/07/28 00:04:34;;;;;;;2.63;1.70;;;14.80;99.90;;;;;;5052723;28;20441;-71
2022/07/28 00:07:00;;;;;;;2.27;1.50;;;14.80;99.90;;;;;;5035605;28;20878;-71
2022/07/28 00:09:26;;;;;;;4.70;1.63;;;14.90;99.90;;;;;;5035557;28;20430;-74
2022/07/28 00:11:52;;;;;;;1.90;1.23;;;14.90;99.90;;;;;;5035607;28;20402;-72
2022/07/28 00:14:17;;;;;;;2.30;1.47;;;14.90;99.90;;;;;;5035344;28;20456;-72
2022/07/28 00:16:43;;;;;;;1.47;1.37;;;14.90;99.90;;;;;;5055487;28;20166;-72
2022/07/28 00:19:09;;;;;;;4.10;1.10;;;14.90;99.90;;;;;;5055352;28;20636;-72
2022/07/28 00:21:34;;;;;;;1.63;1.27;;;14.90;99.90;;;;;;5055360;28;20191;-72
2022/07/28 00:24:00;;;;;;;1.60;1.13;;;14.90;99.90;;;;;;5055278;28;20224;-72
2022/07/28 00:26:25;;;;;;;1.50;1.40;;;14.90;99.90;;;;;;5051449;28;20551;-74
2022/07/28 00:28:51;;;;;;;6.70;1.40;;;14.90;99.90;;;;;;5055122;28;20171;-74
2022/07/28 00:31:17;;;;;;;1.93;1.40;;;14.90;99.90;;;;;;5055096;28;20658;-74
2022/07/28 00:33:42;;;;;;;1.23;1.13;;;14.90;99.90;;;;;;5055270;28;20172;-74
2022/07/28 00:36:08;;;;;;;2.93;1.57;;;14.90;99.90;;;;;;5039616;28;20175;-74
2022/07/28 00:38:35;;;;;;;3.00;1.00;;;14.90;99.90;;;;;;5035175;28;20246;-72
2022/07/28 00:41:10;;;;;;;2.40;1.17;;;14.90;99.90;;;;;;5035005;28;20429;-72
2022/07/28 00:43:40;;;;;;;1.57;1.20;;;14.90;99.90;;;;;;5035356;28;20911;-73
2022/07/28 00:46:07;;;;;;;1.77;1.20;;;14.90;99.90;;;;;;5050759;28;20440;-74
2022/07/28 00:48:42;;;;;;;1.70;1.40;;;14.90;99.90;;;;;;5054642;28;20401;-74
2022/07/28 00:51:08;;;;;;;2.30;1.40;;;14.80;99.90;;;;;;5053958;28;20447;-72
2022/07/28 00:53:34;;;;;;;3.33;1.53;;;14.80;99.90;;;;;;5053593;28;20409;-73
2022/07/28 00:56:00;;;;;;;5.00;1.37;;;14.80;99.90;;;;;;5038993;28;20919;-72
2022/07/28 00:58:27;;;;;;;1.90;1.53;;;14.70;99.90;;;;;;5053822;28;20170;-72
2022/07/28 01:00:53;;;;;;;1.37;1.00;;;14.70;99.90;;;;;;5054589;28;20656;-72
2022/07/28 01:03:19;;;;;;;2.40;1.50;;;14.60;99.90;;;;;;5054580;28;20401;-72
2022/07/28 01:05:53;;;;;;;3.30;1.40;;;14.60;99.90;;;;;;5041187;28;20436;-72
2022/07/28 01:08:32;;;;;;;2.30;1.53;;;14.60;99.90;;;;;;5034281;28;20766;-74
2022/07/28 01:11:05;;;;;;;1.77;1.23;;;14.60;99.90;;;;;;5034548;28;20414;-74
2022/07/28 01:13:43;;;;;;;4.47;1.27;;;14.60;99.90;;;;;;5034503;28;20409;-74
2022/07/28 01:16:09;;;;;;;1.70;1.10;;;14.60;99.90;;;;;;5049733;28;20454;-73
2022/07/28 01:19:08;;;;;;;3.00;1.60;;;14.60;99.90;;;;;;5054342;28;20492;-74
2022/07/28 01:21:36;;;;;;;5.73;1.53;;;14.60;99.90;;;;;;5046598;28;20578;-74
2022/07/28 01:24:31;;;;;;;1.73;1.23;;;14.60;99.90;;;;;;5054257;28;20421;-74
2022/07/28 01:27:02;;;;;;;1.77;1.03;;;14.60;99.90;;;;;;5008778;28;20517;-74
2022/07/28 01:30:05;;;;;;;1.93;1.40;;;14.60;99.90;;;;;;5014314;28;20757;-74
2022/07/28 01:32:42;;;;;;;1.90;1.40;;;14.60;99.90;;;;;;5014288;28;20899;-74
2022/07/28 01:35:16;;;;;;;2.57;1.30;;;14.60;99.90;;;;;;5031923;28;20452;-74
2022/07/28 01:37:48;;;;;;;1.93;1.03;;;14.60;99.90;;;;;;5054059;28;20808;-74
2022/07/28 01:40:21;;;;;;;1.93;1.30;;;14.60;99.90;;;;;;5043939;28;20434;-74
2022/07/28 01:42:50;;;;;;;1.87;0.90;;;14.60;99.90;;;;;;5033984;28;20951;-74
2022/07/28 01:45:18;;;;;;;3.80;1.30;;;14.50;99.90;;;;;;5043232;28;20466;-74
2022/07/28 01:47:45;;;;;;;2.53;1.30;;;14.50;99.90;;;;;;5053969;28;20452;-74
2022/07/28 01:50:14;;;;;;;1.63;1.00;;;14.50;99.90;;;;;;5053557;28;20468;-74
2022/07/28 01:52:41;;;;;;;5.87;1.07;;;14.50;99.90;;;;;;5053577;28;20440;-73
2022/07/28 01:55:08;;;;;;;5.40;1.60;;;14.50;99.90;;;;;;5044832;28;20846;-74
2022/07/28 01:57:35;;;;;;;2.13;1.47;;;14.50;99.90;;;;;;5029118;28;20768;-74
2022/07/28 02:00:02;;;;;;;1.57;1.23;;;14.50;99.90;;;;;;5013729;28;20427;-74
2022/07/28 02:02:29;;;;;;;1.40;0.90;;;14.50;99.90;;;;;;5013857;28;20410;-74
2022/07/28 02:04:57;;;;;;;1.33;0.90;;;14.50;99.90;;;;;;5026932;28;20433;-74
2022/07/28 02:07:23;;;;;;;1.40;1.30;;;14.50;99.90;;;;;;5053340;28;20457;-73
2022/07/28 02:09:49;;;;;;;1.50;1.40;;;14.50;99.90;;;;;;5053392;28;20421;-74
2022/07/28 02:12:17;;;;;;;5.10;1.10;;;14.50;99.90;;;;;;5053080;28;20424;-74
2022/07/28 02:14:45;;;;;;;1.67;1.00;;;14.50;99.90;;;;;;5048244;28;20791;-74
2022/07/28 02:17:16;;;;;;;0.90;0.70;;;14.50;99.90;;;;;;5048582;28;20418;-74
2022/07/28 02:19:44;;;;;;;1.10;0.80;;;14.60;99.90;;;;;;5032537;28;20844;-74
2022/07/28 02:22:11;;;;;;;2.57;1.77;;;14.60;99.90;;;;;;5033295;28;20906;-74
2022/07/28 02:24:39;;;;;;;1.97;1.20;;;14.60;99.90;;;;;;5037653;28;20505;-74
2022/07/28 02:27:25;;;;;;;2.07;1.10;;;14.60;99.90;;;;;;5052852;28;20452;-74
2022/07/28 02:30:02;;;;;;;2.87;1.00;;;14.60;99.90;;;;;;5045898;28;20426;-74
2022/07/28 02:32:53;;;;;;;3.73;1.23;;;14.60;99.90;;;;;;5033009;28;20402;-72
2022/07/28 02:35:41;;;;;;;1.40;1.00;;;14.70;99.90;;;;;;5043087;28;20421;-72
2022/07/28 02:38:17;;;;;;;1.00;0.90;;;14.70;99.90;;;;;;5051501;28;20500;-72
2022/07/28 02:40:45;;;;;;;1.40;1.20;;;14.60;99.90;;;;;;5051426;28;20441;-72
2022/07/28 02:43:14;;;;;;;1.60;0.97;;;14.60;99.90;;;;;;5052493;28;20421;-72
2022/07/28 02:45:44;;;;;;;3.23;1.50;;;14.60;99.90;;;;;;5038875;28;20418;-72
2022/07/28 02:48:14;;;;;;;2.13;1.00;;;14.60;99.90;;;;;;5032666;28;20453;-72
2022/07/28 02:50:41;;;;;;;5.43;1.10;;;14.50;99.90;;;;;;5032580;28;20576;-72
2022/07/28 02:53:08;;;;;;;1.40;1.07;;;14.50;99.90;;;;;;5032663;28;20418;-74
2022/07/28 02:55:34;;;;;;;1.40;0.97;;;14.50;99.90;;;;;;5059656;28;20786;-74
2022/07/28 02:58:03;;;;;;;1.30;1.10;;;14.40;99.90;;;;;;5052183;28;20548;-74
2022/07/28 03:00:29;;;;;;;2.50;1.10;;;14.40;99.90;;;;;;5052308;28;20421;-74
2022/07/28 03:02:55;;;;;;;1.70;1.00;;;14.30;99.90;;;;;;5052343;28;20401;-74
2022/07/28 03:05:21;;;;;;;1.83;1.40;;;14.30;99.90;;;;;;5050135;28;20755;-74
2022/07/28 03:07:55;;;;;;;1.40;1.00;;;14.20;99.90;;;;;;5052278;28;20459;-73
2022/07/28 03:10:24;;;;;;;2.20;1.13;;;14.20;99.90;;;;;;5052190;28;20417;-73
2022/07/28 03:12:51;;;;;;;2.33;1.40;;;14.20;99.90;;;;;;5052209;28;20866;-73
2022/07/28 03:15:16;;;;;;;1.63;1.03;;;14.10;99.90;;;;;;5040877;28;20496;-74
2022/07/28 03:17:42;;;;;;;1.20;0.90;;;14.10;99.90;;;;;;5032170;28;20488;-74
2022/07/28 03:20:09;;;;;;;1.20;0.90;;;14.10;99.90;;;;;;5041443;28;20206;-74
2022/07/28 03:22:35;;;;;;;3.10;1.57;;;14.10;99.90;;;;;;5052127;28;20244;-74
2022/07/28 03:25:05;;;;;;;1.97;1.37;;;14.00;99.90;;;;;;5043297;28;20419;-72
2022/07/28 03:27:42;;;;;;;1.50;1.10;;;14.00;99.90;;;;;;5032060;28;20446;-72
2022/07/28 03:30:12;;;;;;;2.03;1.03;;;13.90;99.90;;;;;;5047393;28;20476;-74
2022/07/28 03:32:43;;;;;;;1.60;0.90;;;13.90;99.90;;;;;;5032010;28;20413;-72
2022/07/28 03:35:11;;;;;;;1.20;1.10;;;13.80;99.90;;;;;;5040637;28;20500;-72
2022/07/28 03:37:54;;;;;;;3.80;1.20;;;13.80;99.90;;;;;;5051917;28;20404;-72
2022/07/28 03:40:25;;;;;;;2.50;1.63;;;13.70;99.90;;;;;;5051751;28;20459;-72
2022/07/28 03:42:52;;;;;;;1.57;1.20;;;13.70;99.90;;;;;;5048152;28;20456;-74
2022/07/28 03:45:18;;;;;;;1.77;1.10;;;13.70;99.90;;;;;;5041339;28;20444;-72
2022/07/28 03:47:55;;;;;;;2.57;1.67;;;13.60;99.90;;;;;;5051746;28;20453;-74
2022/07/28 03:50:25;;;;;;;1.77;1.03;;;13.50;99.90;;;;;;5051706;28;20779;-72
2022/07/28 03:52:51;;;;;;;1.97;1.20;;;13.50;99.90;;;;;;5051564;28;20475;-72
2022/07/28 03:55:17;;;;;;;2.80;1.23;;;13.60;99.90;;;;;;5048957;28;20417;-74
2022/07/28 03:57:43;;;;;;;2.10;1.13;;;13.50;99.90;;;;;;5050650;28;20431;-73
2022/07/28 04:00:10;;;;;;;2.03;1.03;;;13.50;99.90;;;;;;5051678;28;20183;-73
2022/07/28 04:02:35;;;;;;;2.70;1.70;;;13.50;99.90;;;;;;5051176;28;20725;-74
2022/07/28 04:05:01;;;;;;;1.53;1.10;;;13.50;99.90;;;;;;5037736;28;20500;-73
2022/07/28 04:07:27;;;;;;;1.57;1.13;;;13.50;99.90;;;;;;5051517;28;20194;-74
2022/07/28 04:09:52;;;;;;;1.97;1.00;;;13.50;99.90;;;;;;5032261;28;20195;-74
2022/07/28 04:12:18;;;;;;;4.93;1.23;;;13.50;99.90;;;;;;5031697;28;20191;-74
2022/07/28 04:14:43;;;;;;;3.20;1.40;;;13.50;99.90;;;;;;5050460;28;20190;-74
2022/07/28 04:17:09;;;;;;;1.20;0.97;;;13.50;99.90;;;;;;5050333;28;20647;-73
2022/07/28 04:19:34;;;;;;;1.87;1.43;;;13.50;99.90;;;;;;5051263;28;20168;-74
2022/07/28 04:22:00;;;;;;;2.70;1.50;;;13.50;99.90;;;;;;5051459;28;20174;-75
2022/07/28 04:24:26;;;;;;;1.47;1.13;;;13.50;99.90;;;;;;5049560;28;20242;-74
2022/07/28 04:26:51;;;;;;;4.50;1.47;;;13.50;99.90;;;;;;5031575;28;20191;-74
2022/07/28 04:29:17;;;;;;;1.80;1.27;;;13.50;99.90;;;;;;5031556;28;20172;-74
2022/07/28 04:31:43;;;;;;;1.37;1.00;;;13.50;99.90;;;;;;5046720;28;20233;-74
2022/07/28 04:34:09;;;;;;;1.37;1.20;;;13.50;99.90;;;;;;5042228;28;20174;-74
2022/07/28 04:36:40;;;;;;;4.30;1.63;;;13.50;99.90;;;;;;5032268;28;20922;-74
2022/07/28 04:39:07;;;;;;;2.27;1.37;;;13.50;99.90;;;;;;5031429;28;20214;-74
2022/07/28 04:41:33;;;;;;;1.50;1.30;;;13.60;99.90;;;;;;5031403;28;20426;-74
2022/07/28 04:43:59;;;;;;;2.23;1.23;;;13.60;99.90;;;;;;5033364;28;20428;-74
2022/07/28 04:46:25;;;;;;;3.60;1.33;;;13.70;99.90;;;;;;5051444;28;20457;-74
2022/07/28 04:48:50;;;;;;;1.30;1.10;;;13.70;99.90;;;;;;5053637;28;20265;-74
2022/07/28 04:51:16;;;;;;;2.57;1.20;;;13.70;99.90;;;;;;5054648;28;20455;-74
2022/07/28 04:53:42;;;;;;;1.87;1.07;;;13.80;99.90;;;;;;5054474;28;20171;-74
2022/07/28 04:56:07;;;;;;;2.03;1.23;;;13.90;99.90;;;;;;5040647;28;20258;-74
2022/07/28 04:58:33;;;;;;;4.40;1.30;;;14.00;99.90;;;;;;5043070;28;20245;-75
2022/07/28 05:00:59;;;;;;;2.43;1.57;;;14.10;99.90;;;;;;5047070;28;20191;-74
2022/07/28 05:03:24;;;;;;;2.33;1.37;;;14.20;99.90;;;;;;5034726;28;20191;-74
2022/07/28 05:05:50;;;;;;;2.40;1.10;;;14.30;99.90;;;;;;5045092;28;20171;-74
2022/07/28 05:08:15;;;;;;;2.30;1.23;;;14.40;99.90;;;;;;5054516;28;20281;-74
2022/07/28 05:10:41;;;;;;;1.83;1.20;;;14.50;99.90;;;;;;5054417;28;20182;-74
2022/07/28 05:13:07;;;;;;;1.40;0.90;;;14.60;99.90;;;;;;5053251;28;20167;-74
2022/07/28 05:15:33;;;;;;;1.53;1.13;;;14.70;99.90;;;;;;5041250;28;20205;-73
2022/07/28 05:17:58;;;;;;;1.20;1.07;;;14.80;99.90;;;;;;5034357;28;20167;-74
2022/07/28 05:20:24;;;;;;;1.63;1.30;;;15.00;99.90;;;;;;5034416;28;20967;-74
2022/07/28 05:22:52;;;;;;;2.63;1.03;;;15.10;99.90;;;;;;5034482;28;20883;-73
2022/07/28 05:25:19;;;;;;;5.80;1.20;;;15.20;99.90;;;;;;5043575;28;20175;-74
2022/07/28 05:27:45;;;;;;;1.27;1.17;;;15.40;99.90;;;;;;5034247;28;20454;-74
2022/07/28 05:30:12;;;;;;;1.80;1.17;;;15.50;99.90;;;;;;5034297;28;20497;-74
2022/07/28 05:32:37;;;;;;;3.10;1.50;;;15.60;99.90;;;;;;5034134;28;20398;-73
2022/07/28 05:35:04;;;;;;;3.33;1.67;;;15.70;99.90;;;;;;5041529;28;20421;-74
2022/07/28 05:37:32;;;;;;;2.20;1.43;;;15.80;99.90;;;;;;5053994;28;20686;-73
2022/07/28 05:39:58;;;;;;;2.20;1.60;;;15.80;99.90;;;;;;5053985;28;20445;-73
2022/07/28 05:42:25;;;;;;;1.97;1.23;;;15.90;99.90;;;;;;5053927;28;20436;-73
2022/07/28 05:44:50;;;;;;;1.77;1.37;;;16.00;99.90;;;;;;5047409;28;20172;-73
2022/07/28 05:47:16;;;;;;;1.80;1.53;;;16.10;99.90;;;;;;5049100;28;20789;-73
2022/07/28 05:49:41;;;;;;;1.43;1.10;;;16.20;99.90;;;;;;5051915;28;20632;-73
2022/07/28 05:52:07;;;;;;;2.70;1.10;;;16.30;99.90;;;;;;5052340;28;20709;-73
2022/07/28 05:54:32;;;;;;;3.27;1.50;;;16.40;99.90;;;;;;5048007;28;20690;-73
2022/07/28 05:56:58;;;;;;;2.13;1.17;;;16.60;99.90;;;;;;5033506;28;20251;-73
2022/07/28 05:59:23;;;;;;;2.20;1.53;;;16.70;99.90;;;;;;5033647;28;20167;-72
2022/07/28 06:01:49;;;;;;;2.80;1.63;;;16.90;99.90;;;;;;5033433;28;20195;-73
2022/07/28 06:04:14;;;;;;;1.77;1.03;;;17.10;99.90;;;;;;5033513;28;20629;-74
2022/07/28 06:06:40;;;;;;;2.70;1.00;;;17.30;99.90;;;;;;5053312;28;20225;-72
2022/07/28 06:09:06;;;;;;;1.93;1.23;;;17.50;99.90;;;;;;5053418;28;20167;-73
2022/07/28 06:11:31;;;;;;;1.47;0.97;;;17.60;99.90;;;;;;5053293;28;20183;-74
2022/07/28 06:13:57;;;;;;;4.20;1.57;;;17.80;99.90;;;;;;5042814;28;20691;-73
2022/07/28 06:16:22;;;;;;;2.63;1.20;;;18.00;99.90;;;;;;5050324;28;20682;-73
2022/07/28 06:18:49;;;;;;;1.40;1.10;;;18.20;99.90;;;;;;5053223;28;20175;-73
2022/07/28 06:21:14;;;;;;;5.00;1.63;;;18.40;99.90;;;;;;5053040;28;20675;-73
2022/07/28 06:23:40;;;;;;;1.53;1.40;;;18.50;99.90;;;;;;5053134;28;20405;-73
2022/07/28 06:26:06;;;;;;;3.73;2.80;;;18.50;99.90;;;;;;5037491;28;20187;-73
2022/07/28 06:28:31;;;;;;;1.90;1.30;;;18.50;99.90;;;;;;5033123;28;20174;-72
2022/07/28 06:30:57;;;;;;;3.20;2.00;;;18.50;99.90;;;;;;5033034;28;20194;-73
2022/07/28 06:33:23;;;;;;;2.40;1.47;;;18.60;99.90;;;;;;5032953;28;20183;-73
2022/07/28 06:35:48;;;;;;;2.60;1.47;;;18.70;99.90;;;;;;5031357;28;20176;-73
2022/07/28 06:38:14;;;;;;;1.60;1.10;;;18.90;99.90;;;;;;5039414;28;20175;-74
2022/07/28 06:40:41;;;;;;;12.53;2.83;;;19.20;99.90;;;;;;5051443;28;20195;-73
2022/07/28 06:43:07;;;;;;;1.60;1.50;;;19.90;99.90;;;;;;5047561;28;20538;-73
2022/07/28 06:45:32;;;;;;;1.40;1.10;;;20.70;99.90;;;;;;5032496;28;20410;-73
2022/07/28 06:47:58;;;;;;;2.80;1.40;;;21.70;99.90;;;;;;5032668;28;20719;-74
2022/07/28 06:50:24;;;;;;;8.57;1.97;;;22.40;99.90;;;;;;5032688;28;20203;-73
2022/07/28 06:52:49;;;;;;;2.00;1.00;;;22.70;99.90;;;;;;5037945;28;20225;-73
2022/07/28 06:55:15;;;;;;;1.70;1.20;;;22.70;99.90;;;;;;5052284;28;20175;-73
2022/07/28 06:57:42;;;;;;;1.43;1.30;;;22.90;99.90;;;;;;5051291;28;20171;-74
2022/07/28 07:00:10;;;;;;;1.60;1.10;;;23.20;99.90;;;;;;5052246;28;20195;-74
2022/07/28 07:02:40;;;;;;;2.40;1.90;;;23.70;99.90;;;;;;5049008;28;20460;-74
2022/07/28 07:05:07;;;;;;;2.40;1.23;;;24.10;98.40;;;;;;5032140;28;20830;-73
2022/07/28 07:07:33;;;;;;;2.37;1.33;;;24.60;95.50;;;;;;5032058;28;20456;-74
2022/07/28 07:09:59;;;;;;;2.60;1.60;;;25.50;93.40;;;;;;5032425;28;20422;-74
2022/07/28 07:12:24;;;;;;;1.47;1.23;;;26.50;90.40;;;;;;5048762;28;20537;-74
2022/07/28 07:14:50;;;;;;;3.17;1.47;;;27.70;83.30;;;;;;5052003;28;20276;-74
2022/07/28 07:17:15;;;;;;;1.80;1.37;;;28.70;75.80;;;;;;5052198;28;20163;-74
2022/07/28 07:19:41;;;;;;;1.60;1.37;;;29.60;67.40;;;;;;5052003;28;20171;-74
2022/07/28 07:22:06;;;;;;;3.53;1.53;;;30.50;60.90;;;;;;5052131;28;20163;-74
2022/07/28 07:24:32;;;;;;;3.07;1.37;;;31.20;56.90;;;;;;5050234;28;20179;-74
2022/07/28 07:26:57;;;;;;;2.63;1.23;;;31.70;54.90;;;;;;5051948;28;20195;-75
2022/07/28 07:29:23;;;;;;;1.40;1.30;;;32.30;51.60;;;;;;5050340;28;20171;-74
2022/07/28 07:31:49;;;;;;;6.43;2.00;;;32.80;49.30;;;;;;5051923;28;20253;-75
2022/07/28 07:34:17;;;;;;;2.40;1.10;;;33.40;47.40;;;;;;5051393;28;20167;-75
2022/07/28 07:36:42;;;;;;;1.60;1.40;;;34.00;46.50;;;;;;5051889;28;20194;-74
2022/07/28 07:39:08;;;;;;;1.40;1.30;;;34.70;45.70;;;;;;5037572;28;20449;-75
2022/07/28 07:41:34;;;;;;;2.10;1.60;;;35.30;43.90;;;;;;5032007;28;20572;-75
2022/07/28 07:43:59;;;;;;;1.87;1.60;;;35.90;42.50;;;;;;5031923;28;20172;-75
2022/07/28 07:46:25;;;;;;;1.73;1.50;;;36.20;41.60;;;;;;5031611;28;20710;-75
2022/07/28 07:48:50;;;;;;;3.93;2.13;;;36.80;39.70;;;;;;5043019;28;20175;-75
2022/07/28 07:51:16;;;;;;;3.57;1.20;;;37.10;39.40;;;;;;5051654;28;20183;-75
2022/07/28 07:53:42;;;;;;;2.07;1.87;;;37.60;38.30;;;;;;5043052;28;20172;-75
2022/07/28 07:56:07;;;;;;;2.37;1.20;;;38.20;36.10;;;;;;5031292;28;20251;-75
2022/07/28 07:58:33;;;;;;;3.63;1.40;;;38.30;36.30;;;;;;5034787;28;20198;-76
2022/07/28 08:00:58;;;;;;;2.67;1.93;;;38.60;36.10;;;;;;5031463;28;20190;-75
2022/07/28 08:03:24;;;;;;;3.00;1.40;;;38.90;35.00;;;;;;5031499;28;20160;-74
2022/07/28 08:05:54;;;;;;;2.10;1.67;;;39.30;35.50;;;;;;5031347;28;20242;-74
2022/07/28 08:08:20;;;;;;;4.97;1.53;;;39.50;34.40;;;;;;5030508;28;20196;-74
2022/07/28 08:10:45;;;;;;;1.87;1.67;;;39.80;33.70;;;;;;5031275;28;20405;-73
2022/07/28 08:13:11;;;;;;;2.70;1.53;;;40.00;33.20;;;;;;5031466;28;20171;-74
2022/07/28 08:15:36;;;;;;;1.87;1.73;;;40.20;33.30;;;;;;5030742;28;20175;-73
2022/07/28 08:18:02;;;;;;;2.07;1.87;;;40.60;32.90;;;;;;5031930;28;20234;-74
2022/07/28 08:20:28;;;;;;;1.77;1.53;;;41.10;32.20;;;;;;5034972;28;20186;-74
2022/07/28 08:22:55;;;;;;;2.00;1.60;;;41.40;31.70;;;;;;5034829;28;20469;-74
2022/07/28 08:25:22;;;;;;;1.97;1.67;;;41.50;31.80;;;;;;5034746;28;20171;-74
2022/07/28 08:27:48;;;;;;;1.90;1.70;;;41.70;31.10;;;;;;5035128;28;20929;-74
2022/07/28 08:30:14;;;;;;;2.17;1.40;;;42.00;30.50;;;;;;5034898;28;20422;-74
2022/07/28 08:32:41;;;;;;;2.33;1.60;;;42.10;29.80;;;;;;5034919;28;20369;-74
2022/07/28 08:35:07;;;;;;;1.80;1.70;;;42.10;29.70;;;;;;5034474;28;20433;-74
2022/07/28 08:37:33;;;;;;;5.03;2.03;;;42.30;29.30;;;;;;5035503;28;20425;-74
2022/07/28 08:39:59;;;;;;;3.33;1.67;;;42.60;30.00;;;;;;5034756;28;20422;-74
2022/07/28 08:42:33;;;;;;;2.70;2.50;;;42.90;29.10;;;;;;5034805;28;20584;-74
2022/07/28 08:45:05;;;;;;;2.80;1.60;;;43.20;29.50;;;;;;5059428;28;20304;-74
2022/07/28 08:47:33;;;;;;;5.80;2.00;;;43.50;29.00;;;;;;5032248;28;20449;-74
2022/07/28 08:49:59;;;;;;;1.80;1.70;;;43.90;29.20;;;;;;5034666;28;20556;-74
2022/07/28 08:52:28;;;;;;;4.20;1.60;;;44.30;28.50;;;;;;5034801;28;20418;-74
2022/07/28 08:54:56;;;;;;;7.73;2.27;;;44.50;27.80;;;;;;5034365;28;20408;-74
2022/07/28 08:57:31;;;;;;;3.80;3.50;;;44.40;27.90;;;;;;5037645;28;20422;-74
2022/07/28 08:59:57;;;;;;;1.50;1.40;;;44.60;27.60;;;;;;5056172;28;20445;-74
2022/07/28 09:02:25;;;;;;;4.13;1.83;;;45.00;28.10;;;;;;5036192;28;20407;-74
2022/07/28 09:04:53;;;;;;;1.60;1.50;;;45.00;27.50;;;;;;5034182;28;20554;-75
2022/07/28 09:07:19;;;;;;;3.90;2.50;;;45.40;27.40;;;;;;5034861;28;20462;-75
2022/07/28 09:09:47;;;;;;;3.00;2.03;;;45.80;27.30;;;;;;5034971;28;20845;-74
2022/07/28 09:12:12;;;;;;;2.43;1.53;;;45.90;26.60;;;;;;5034273;28;20171;-74
2022/07/28 09:14:38;;;;;;;1.93;1.83;;;46.00;26.60;;;;;;5034020;28;20377;-74
2022/07/28 09:17:04;;;;;;;2.40;1.73;;;46.40;27.00;;;;;;5036078;28;20180;-74
2022/07/28 09:19:29;;;;;;;1.97;1.87;;;46.30;26.40;;;;;;5034209;28;20172;-75
2022/07/28 09:21:56;;;;;;;3.50;2.00;;;46.30;26.50;;;;;;5034307;28;20243;-74
2022/07/28 09:24:37;;;;;;;1.97;1.77;;;46.50;26.60;;;;;;5033725;28;20172;-74
2022/07/28 09:27:08;;;;;;;2.07;1.87;;;47.00;26.60;;;;;;5032786;28;20460;-75
2022/07/28 09:29:36;;;;;;;2.13;1.67;;;47.30;25.40;;;;;;5037926;28;20411;-75
2022/07/28 09:32:03;;;;;;;2.60;1.97;;;47.30;25.70;;;;;;5032453;28;20452;-74
2022/07/28 09:34:45;;;;;;;5.00;1.97;;;47.60;26.00;;;;;;5033439;28;20410;-75
2022/07/28 09:37:24;;;;;;;2.47;2.27;;;47.60;25.30;;;;;;5035537;28;20513;-75
2022/07/28 09:39:56;;;;;;;3.17;2.30;;;47.70;25.50;;;;;;5033402;28;20434;-74
2022/07/28 09:42:22;;;;;;;2.20;2.00;;;47.90;25.20;;;;;;5033736;28;20460;-75
2022/07/28 09:45:06;;;;;;;2.23;1.83;;;47.80;24.80;;;;;;5033160;28;21275;-74
2022/07/28 09:47:33;;;;;;;2.33;1.93;;;48.10;25.00;;;;;;5024792;28;20876;-75
2022/07/28 09:49:59;;;;;;;2.00;1.90;;;48.40;24.50;;;;;;5053723;28;20417;-75
2022/07/28 09:52:30;;;;;;;2.27;2.17;;;48.10;24.70;;;;;;5036967;28;20426;-75
2022/07/28 09:55:04;;;;;;;3.63;2.30;;;48.10;24.60;;;;;;5031933;28;20392;-74
2022/07/28 09:57:31;;;;;;;3.10;2.50;;;48.00;24.40;;;;;;5037273;28;20460;-75
2022/07/28 09:59:57;;;;;;;1.83;1.73;;;48.40;24.80;;;;;;5053636;28;20965;-75
2022/07/28 10:02:30;;;;;;;2.07;1.90;;;48.70;24.40;;;;;;5053516;28;20433;-74
2022/07/28 10:04:59;;;;;;;2.47;2.10;;;48.40;24.60;;;;;;5053343;28;20213;-74
2022/07/28 10:07:27;;;;;;;2.10;1.90;;;48.10;24.40;;;;;;5049121;28;20464;-75
2022/07/28 10:10:07;;;;;;;2.30;1.67;;;48.00;25.00;;;;;;5033325;28;20497;-75
2022/07/28 10:12:35;;;;;;;2.00;1.77;;;47.80;24.20;;;;;;5036377;28;20979;-75
2022/07/28 10:18:03;;;;;;;3.50;1.60;;;47.40;24.30;;;;;;5044369;28;20959;-74
2022/07/28 10:20:31;;;;;;;3.87;1.60;;;47.60;24.40;;;;;;5033009;28;20426;-75
2022/07/28 10:23:03;;;;;;;1.60;1.50;;;47.80;24.40;;;;;;5033060;28;20756;-74
2022/07/28 10:25:33;;;;;;;2.27;2.07;;;47.80;24.70;;;;;;5032916;28;20916;-75
2022/07/28 10:28:00;;;;;;;1.93;1.83;;;48.30;24.70;;;;;;5040558;28;20467;-75
2022/07/28 10:30:33;;;;;;;2.00;1.90;;;48.50;24.10;;;;;;5052538;28;21040;-74
2022/07/28 10:33:01;;;;;;;2.13;2.03;;;49.00;24.40;;;;;;5052834;28;20413;-75
2022/07/28 10:35:27;;;;;;;3.23;3.03;;;49.40;24.10;;;;;;5052282;28;20833;-75
2022/07/28 10:38:10;;;;;;;1.90;1.80;;;50.00;24.00;;;;;;5045527;28;20826;-74
2022/07/28 10:40:39;;;;;;;2.47;2.20;;;50.10;23.70;;;;;;5032350;28;20430;-74
2022/07/28 10:43:06;;;;;;;2.10;2.00;;;50.00;23.50;;;;;;5032637;28;20380;-74
2022/07/28 10:45:33;;;;;;;3.93;2.00;;;49.90;23.90;;;;;;5032224;28;20988;-74
2022/07/28 10:47:59;;;;;;;2.00;1.90;;;49.50;23.70;;;;;;5043189;28;20414;-75
2022/07/28 10:50:26;;;;;;;1.97;1.87;;;49.40;23.80;;;;;;5052331;28;20425;-74
2022/07/28 10:52:52;;;;;;;3.30;1.83;;;49.40;23.80;;;;;;5052285;28;20426;-74
2022/07/28 10:55:57;;;;;;;2.10;1.90;;;49.70;23.90;;;;;;5051890;28;20409;-75
2022/07/28 10:58:35;;;;;;;2.77;2.53;;;49.80;23.50;;;;;;5037875;28;21027;-75
2022/07/28 11:01:01;;;;;;;1.80;1.70;;;50.00;23.80;;;;;;5033531;28;20450;-74
2022/07/28 11:03:42;;;;;;;2.37;2.17;;;50.20;23.90;;;;;;5052156;28;20459;-74
2022/07/28 11:06:41;;;;;;;2.00;1.70;;;49.90;23.20;;;;;;5027768;28;20175;-74
2022/07/28 11:09:15;;;;;;;2.20;2.00;;;50.30;23.00;;;;;;5051899;28;20420;-74
2022/07/28 11:11:56;;;;;;;2.93;2.33;;;50.40;23.60;;;;;;5051965;28;20420;-74
2022/07/28 11:14:25;;;;;;;6.37;5.77;;;50.40;23.10;;;;;;5051819;28;20410;-74
2022/07/28 11:17:11;;;;;;;3.30;3.10;;;50.40;23.70;;;;;;5049071;28;20957;-74
2022/07/28 11:19:43;;;;;;;2.93;2.63;;;49.90;22.70;;;;;;5032153;28;20397;-74
2022/07/28 11:22:15;;;;;;;2.43;1.90;;;49.80;22.00;;;;;;5032086;28;20494;-75
2022/07/28 11:24:56;;;;;;;3.70;2.17;;;48.90;23.30;;;;;;5032824;28;20753;-74
2022/07/28 11:27:57;;;;;;;1.90;1.80;;;48.20;23.30;;;;;;5038655;28;20416;-74
2022/07/28 11:32:54;;;;;;;2.00;1.70;;;46.80;24.40;;;;;;5051573;28;20499;-73
2022/07/28 11:35:23;;;;;;;2.83;2.07;;;46.40;24.70;;;;;;5051421;28;20441;-73
2022/07/28 11:38:00;;;;;;;1.70;1.60;;;46.40;24.20;;;;;;5041183;28;20699;-73
2022/07/28 11:40:34;;;;;;;2.00;1.80;;;46.60;24.10;;;;;;5031720;28;20505;-73
2022/07/28 11:45:48;;;;;;;1.77;1.67;;;46.60;24.80;;;;;;5031604;28;20437;-73
2022/07/28 11:48:14;;;;;;;2.23;1.90;;;46.90;25.40;;;;;;5044750;28;20956;-74
2022/07/28 11:50:41;;;;;;;3.57;1.90;;;47.70;25.10;;;;;;5033761;28;20931;-74
2022/07/28 11:53:07;;;;;;;1.63;1.53;;;48.50;24.30;;;;;;5032278;28;20430;-74
2022/07/28 11:55:32;;;;;;;2.30;2.17;;;49.20;24.20;;;;;;5035477;28;20432;-74
2022/07/28 11:58:01;;;;;;;2.20;2.10;;;49.40;22.80;;;;;;5046261;28;20877;-73
2022/07/28 12:00:27;;;;;;;1.70;1.60;;;49.70;22.10;;;;;;5055578;28;20269;-73
2022/07/28 12:02:53;;;;;;;1.93;1.83;;;49.30;23.50;;;;;;5055638;28;20497;-73
2022/07/28 12:05:21;;;;;;;2.43;2.27;;;49.10;22.20;;;;;;5055194;28;20163;-73
2022/07/28 12:07:51;;;;;;;2.00;1.90;;;49.30;23.40;;;;;;5044421;28;20244;-73
2022/07/28 12:10:24;;;;;;;2.20;2.00;;;48.60;23.40;;;;;;5035384;28;20432;-72
2022/07/28 12:12:55;;;;;;;1.70;1.60;;;47.90;23.20;;;;;;5035495;28;20413;-72
2022/07/28 12:15:21;;;;;;;2.13;1.70;;;47.80;23.10;;;;;;5048199;28;20388;-72
2022/07/28 12:17:48;;;;;;;2.00;1.80;;;47.40;23.80;;;;;;5045218;28;20454;-73
2022/07/28 12:20:16;;;;;;;5.03;1.80;;;46.60;24.60;;;;;;5035133;28;20183;-73
2022/07/28 12:23:05;;;;;;;2.90;2.33;;;45.70;24.20;;;;;;5035109;28;20385;-73
2022/07/28 12:25:42;;;;;;;1.70;1.50;;;46.00;25.00;;;;;;5034770;28;20789;-73
2022/07/28 12:28:15;;;;;;;1.53;1.43;;;46.50;25.40;;;;;;5034503;28;20979;-73
2022/07/28 12:30:40;;;;;;;1.97;1.77;;;46.60;23.80;;;;;;5035016;28;20801;-74
2022/07/28 12:33:20;;;;;;;3.17;1.47;;;46.30;24.00;;;;;;5017197;28;20394;-74
2022/07/28 12:35:49;;;;;;;3.60;1.77;;;46.10;24.50;;;;;;5014623;28;20176;-75
2022/07/28 12:38:15;;;;;;;1.67;1.57;;;46.40;25.10;;;;;;5028072;28;20458;-73
2022/07/28 12:40:41;;;;;;;1.57;1.40;;;46.30;24.30;;;;;;5034827;28;21095;-73
2022/07/28 12:43:07;;;;;;;2.67;1.70;;;45.20;24.70;;;;;;5034418;28;20186;-74
2022/07/28 12:45:42;;;;;;;2.43;2.23;;;44.00;25.10;;;;;;5034569;28;20377;-72
2022/07/28 12:48:07;;;;;;;1.30;1.13;;;42.60;25.70;;;;;;5022673;28;20215;-72
2022/07/28 12:50:37;;;;;;;2.73;1.43;;;41.50;26.10;;;;;;5014884;28;20932;-72
2022/07/28 12:53:02;;;;;;;1.50;1.40;;;40.10;26.50;;;;;;5014919;28;20184;-73
2022/07/28 12:55:30;;;;;;;1.50;1.40;;;39.10;28.00;;;;;;5029869;28;20768;-72
2022/07/28 12:57:56;;;;;;;2.60;1.70;;;38.20;28.50;;;;;;5024656;28;20241;-73
2022/07/28 13:00:25;;;;;;;3.50;2.00;;;37.50;29.10;;;;;;5034464;28;20793;-73
2022/07/28 13:02:53;;;;;;;3.10;2.47;;;36.90;29.20;;;;;;5034534;28;20712;-72
2022/07/28 13:08:19;;;;;;;3.63;2.17;;;36.20;30.40;;;;;;5021197;28;20452;-72